sensor_id;sensor_type;location;lat;lon;timestamp;temperature;humidity
27188;DHT22;14708;50.872;5.306;2022-10-10T00:01:14;20.40;64.70
27188;DHT22;14708;50.872;5.306;2022-10-10T00:03:40;20.50;64.90
27188;DHT22;14708;50.872;5.306;2022-10-10T00:06:14;20.50;64.90
27188;DHT22;14708;50.872;5.306;2022-10-10T00:08:41;20.40;64.80
27188;DHT22;14708;50.872;5.306;2022-10-10T00:11:07;20.40;64.80
27188;DHT22;14708;50.872;5.306;2022-10-10T00:13:33;20.40;64.80
27188;DHT22;14708;50.872;5.306;2022-10-10T00:15:59;20.40;64.60
27188;DHT22;14708;50.872;5.306;2022-10-10T00:18:25;20.40;64.90
27188;DHT22;14708;50.872;5.306;2022-10-10T00:20:51;20.40;64.80
27188;DHT22;14708;50.872;5.306;2022-10-10T00:23:18;20.40;64.60
27188;DHT22;14708;50.872;5.306;2022-10-10T00:25:43;20.40;64.70
27188;DHT22;14708;50.872;5.306;2022-10-10T00:28:09;20.40;64.80
27188;DHT22;14708;50.872;5.306;2022-10-10T00:30:34;20.40;64.80
27188;DHT22;14708;50.872;5.306;2022-10-10T00:33:00;20.40;64.70
27188;DHT22;14708;50.872;5.306;2022-10-10T00:35:26;20.40;64.70
27188;DHT22;14708;50.872;5.306;2022-10-10T00:37:52;20.40;64.70
27188;DHT22;14708;50.872;5.306;2022-10-10T00:40:18;20.30;64.80
27188;DHT22;14708;50.872;5.306;2022-10-10T00:42:43;20.30;64.70
27188;DHT22;14708;50.872;5.306;2022-10-10T00:47:52;20.30;64.60
27188;DHT22;14708;50.872;5.306;2022-10-10T00:50:20;20.30;64.60
27188;DHT22;14708;50.872;5.306;2022-10-10T00:52:46;20.30;64.60
27188;DHT22;14708;50.872;5.306;2022-10-10T00:55:13;20.30;64.70
27188;DHT22;14708;50.872;5.306;2022-10-10T00:57:40;20.30;64.50
27188;DHT22;14708;50.872;5.306;2022-10-10T01:00:06;20.30;64.60
27188;DHT22;14708;50.872;5.306;2022-10-10T01:02:32;20.30;64.50
27188;DHT22;14708;50.872;5.306;2022-10-10T01:04:57;20.20;64.70
27188;DHT22;14708;50.872;5.306;2022-10-10T01:07:28;20.30;65.60
27188;DHT22;14708;50.872;5.306;2022-10-10T01:09:57;20.20;64.70
27188;DHT22;14708;50.872;5.306;2022-10-10T01:15:47;20.20;64.80
27188;DHT22;14708;50.872;5.306;2022-10-10T01:21:14;20.20;64.70
27188;DHT22;14708;50.872;5.306;2022-10-10T01:29:33;20.20;64.70
27188;DHT22;14708;50.872;5.306;2022-10-10T01:32:19;20.20;64.70
27188;DHT22;14708;50.872;5.306;2022-10-10T01:35:21;20.20;64.70
27188;DHT22;14708;50.872;5.306;2022-10-10T01:41:05;20.20;64.70
27188;DHT22;14708;50.872;5.306;2022-10-10T01:43:35;20.10;64.60
27188;DHT22;14708;50.872;5.306;2022-10-10T01:46:09;20.20;64.80
27188;DHT22;14708;50.872;5.306;2022-10-10T01:48:35;20.10;64.80
27188;DHT22;14708;50.872;5.306;2022-10-10T01:56:54;20.10;64.70
27188;DHT22;14708;50.872;5.306;2022-10-10T02:02:14;20.10;64.70
27188;DHT22;14708;50.872;5.306;2022-10-10T02:04:48;20.10;64.60
27188;DHT22;14708;50.872;5.306;2022-10-10T02:07:22;20.10;64.60
27188;DHT22;14708;50.872;5.306;2022-10-10T02:09:51;20.10;64.60
27188;DHT22;14708;50.872;5.306;2022-10-10T02:12:19;20.10;64.70
27188;DHT22;14708;50.872;5.306;2022-10-10T02:14:47;20.10;64.70
27188;DHT22;14708;50.872;5.306;2022-10-10T02:17:15;20.10;64.70
27188;DHT22;14708;50.872;5.306;2022-10-10T02:19:45;20.10;64.70
27188;DHT22;14708;50.872;5.306;2022-10-10T02:22:14;20.10;64.80
27188;DHT22;14708;50.872;5.306;2022-10-10T02:24:40;20.10;64.70
27188;DHT22;14708;50.872;5.306;2022-10-10T02:27:12;20.10;64.70
27188;DHT22;14708;50.872;5.306;2022-10-10T02:29:41;20.10;64.70
27188;DHT22;14708;50.872;5.306;2022-10-10T02:32:25;20.10;64.70
27188;DHT22;14708;50.872;5.306;2022-10-10T02:34:56;20.10;64.70
27188;DHT22;14708;50.872;5.306;2022-10-10T02:37:24;20.00;64.70
27188;DHT22;14708;50.872;5.306;2022-10-10T02:39:54;20.00;64.50
27188;DHT22;14708;50.872;5.306;2022-10-10T02:42:21;20.00;64.60
27188;DHT22;14708;50.872;5.306;2022-10-10T02:44:48;20.10;64.60
27188;DHT22;14708;50.872;5.306;2022-10-10T02:47:13;20.10;64.80
27188;DHT22;14708;50.872;5.306;2022-10-10T02:49:39;20.00;64.60
27188;DHT22;14708;50.872;5.306;2022-10-10T02:52:05;20.00;64.70
27188;DHT22;14708;50.872;5.306;2022-10-10T02:54:31;20.00;64.40
27188;DHT22;14708;50.872;5.306;2022-10-10T02:56:56;20.00;64.80
27188;DHT22;14708;50.872;5.306;2022-10-10T02:59:22;20.00;64.70
27188;DHT22;14708;50.872;5.306;2022-10-10T03:01:51;20.00;64.70
27188;DHT22;14708;50.872;5.306;2022-10-10T03:04:19;20.00;64.70
27188;DHT22;14708;50.872;5.306;2022-10-10T03:06:45;20.00;64.60
27188;DHT22;14708;50.872;5.306;2022-10-10T03:09:10;20.00;64.70
27188;DHT22;14708;50.872;5.306;2022-10-10T03:11:36;20.00;64.70
27188;DHT22;14708;50.872;5.306;2022-10-10T03:14:02;20.00;64.60
27188;DHT22;14708;50.872;5.306;2022-10-10T03:16:27;20.00;64.70
27188;DHT22;14708;50.872;5.306;2022-10-10T03:18:53;20.00;64.70
27188;DHT22;14708;50.872;5.306;2022-10-10T03:21:18;20.00;64.80
27188;DHT22;14708;50.872;5.306;2022-10-10T03:23:44;20.00;64.60
27188;DHT22;14708;50.872;5.306;2022-10-10T03:26:09;20.00;64.70
27188;DHT22;14708;50.872;5.306;2022-10-10T03:28:38;19.90;64.60
27188;DHT22;14708;50.872;5.306;2022-10-10T03:31:04;20.00;64.40
27188;DHT22;14708;50.872;5.306;2022-10-10T03:33:30;20.00;64.60
27188;DHT22;14708;50.872;5.306;2022-10-10T03:35:55;20.00;64.70
27188;DHT22;14708;50.872;5.306;2022-10-10T03:38:21;20.00;64.60
27188;DHT22;14708;50.872;5.306;2022-10-10T03:40:47;19.90;64.50
27188;DHT22;14708;50.872;5.306;2022-10-10T03:43:13;19.90;64.50
27188;DHT22;14708;50.872;5.306;2022-10-10T03:45:43;19.90;64.60
27188;DHT22;14708;50.872;5.306;2022-10-10T03:48:12;19.90;64.40
27188;DHT22;14708;50.872;5.306;2022-10-10T03:50:38;19.90;64.50
27188;DHT22;14708;50.872;5.306;2022-10-10T03:53:04;19.90;64.50
27188;DHT22;14708;50.872;5.306;2022-10-10T03:55:30;19.90;64.40
27188;DHT22;14708;50.872;5.306;2022-10-10T03:57:56;19.90;64.30
27188;DHT22;14708;50.872;5.306;2022-10-10T04:00:21;19.90;64.40
27188;DHT22;14708;50.872;5.306;2022-10-10T04:02:47;19.90;64.50
27188;DHT22;14708;50.872;5.306;2022-10-10T04:05:12;19.90;64.50
27188;DHT22;14708;50.872;5.306;2022-10-10T04:07:38;19.90;64.40
27188;DHT22;14708;50.872;5.306;2022-10-10T04:10:06;19.90;64.50
27188;DHT22;14708;50.872;5.306;2022-10-10T04:12:31;19.90;64.50
27188;DHT22;14708;50.872;5.306;2022-10-10T04:14:57;19.90;64.50
27188;DHT22;14708;50.872;5.306;2022-10-10T04:17:23;19.90;64.40
27188;DHT22;14708;50.872;5.306;2022-10-10T04:19:48;19.90;64.50
27188;DHT22;14708;50.872;5.306;2022-10-10T04:22:14;19.90;64.50
27188;DHT22;14708;50.872;5.306;2022-10-10T04:24:41;19.90;64.50
27188;DHT22;14708;50.872;5.306;2022-10-10T04:27:06;19.90;64.50
27188;DHT22;14708;50.872;5.306;2022-10-10T04:29:32;19.90;64.40
27188;DHT22;14708;50.872;5.306;2022-10-10T04:32:00;19.90;64.30
27188;DHT22;14708;50.872;5.306;2022-10-10T04:34:25;19.90;64.50
27188;DHT22;14708;50.872;5.306;2022-10-10T04:37:00;19.90;64.50
27188;DHT22;14708;50.872;5.306;2022-10-10T04:39:25;19.90;64.50
27188;DHT22;14708;50.872;5.306;2022-10-10T04:41:51;19.90;64.30
27188;DHT22;14708;50.872;5.306;2022-10-10T04:44:18;19.90;64.30
27188;DHT22;14708;50.872;5.306;2022-10-10T04:46:43;19.90;64.00
27188;DHT22;14708;50.872;5.306;2022-10-10T04:49:09;19.90;64.20
27188;DHT22;14708;50.872;5.306;2022-10-10T04:51:35;19.90;64.20
27188;DHT22;14708;50.872;5.306;2022-10-10T04:54:02;19.90;64.20
27188;DHT22;14708;50.872;5.306;2022-10-10T04:56:27;19.90;64.20
27188;DHT22;14708;50.872;5.306;2022-10-10T04:58:53;19.90;64.90
27188;DHT22;14708;50.872;5.306;2022-10-10T05:01:19;19.80;64.90
27188;DHT22;14708;50.872;5.306;2022-10-10T05:03:44;19.90;64.00
27188;DHT22;14708;50.872;5.306;2022-10-10T05:06:10;19.90;64.10
27188;DHT22;14708;50.872;5.306;2022-10-10T05:08:36;19.90;64.20
27188;DHT22;14708;50.872;5.306;2022-10-10T05:11:01;19.80;64.10
27188;DHT22;14708;50.872;5.306;2022-10-10T05:13:27;19.80;64.00
27188;DHT22;14708;50.872;5.306;2022-10-10T05:15:53;19.80;64.20
27188;DHT22;14708;50.872;5.306;2022-10-10T05:18:19;19.80;64.10
27188;DHT22;14708;50.872;5.306;2022-10-10T05:20:45;19.80;64.30
27188;DHT22;14708;50.872;5.306;2022-10-10T05:23:14;19.80;64.00
27188;DHT22;14708;50.872;5.306;2022-10-10T05:25:46;19.80;64.20
27188;DHT22;14708;50.872;5.306;2022-10-10T05:28:12;19.80;64.10
27188;DHT22;14708;50.872;5.306;2022-10-10T05:30:37;19.80;64.20
27188;DHT22;14708;50.872;5.306;2022-10-10T05:33:03;19.80;64.20
27188;DHT22;14708;50.872;5.306;2022-10-10T05:35:29;19.80;64.10
27188;DHT22;14708;50.872;5.306;2022-10-10T05:37:54;19.80;64.20
27188;DHT22;14708;50.872;5.306;2022-10-10T05:40:20;19.80;64.40
27188;DHT22;14708;50.872;5.306;2022-10-10T05:42:45;19.80;64.40
27188;DHT22;14708;50.872;5.306;2022-10-10T05:45:11;19.80;64.40
27188;DHT22;14708;50.872;5.306;2022-10-10T05:47:36;19.80;64.20
27188;DHT22;14708;50.872;5.306;2022-10-10T05:50:03;19.80;64.20
27188;DHT22;14708;50.872;5.306;2022-10-10T05:52:28;19.80;63.90
27188;DHT22;14708;50.872;5.306;2022-10-10T05:54:54;19.80;64.00
27188;DHT22;14708;50.872;5.306;2022-10-10T05:57:20;19.80;64.70
27188;DHT22;14708;50.872;5.306;2022-10-10T05:59:45;19.80;64.20
27188;DHT22;14708;50.872;5.306;2022-10-10T06:02:12;19.80;64.00
27188;DHT22;14708;50.872;5.306;2022-10-10T06:04:38;19.80;64.00
27188;DHT22;14708;50.872;5.306;2022-10-10T06:07:04;19.70;64.10
27188;DHT22;14708;50.872;5.306;2022-10-10T06:09:39;19.80;64.30
27188;DHT22;14708;50.872;5.306;2022-10-10T06:12:05;19.80;64.20
27188;DHT22;14708;50.872;5.306;2022-10-10T06:14:31;19.80;64.20
27188;DHT22;14708;50.872;5.306;2022-10-10T06:16:57;19.70;64.20
27188;DHT22;14708;50.872;5.306;2022-10-10T06:19:22;19.80;64.10
27188;DHT22;14708;50.872;5.306;2022-10-10T06:21:48;19.80;64.00
27188;DHT22;14708;50.872;5.306;2022-10-10T06:24:14;19.80;64.20
27188;DHT22;14708;50.872;5.306;2022-10-10T06:26:39;19.80;64.00
27188;DHT22;14708;50.872;5.306;2022-10-10T06:29:05;19.70;64.80
27188;DHT22;14708;50.872;5.306;2022-10-10T06:31:31;19.80;64.10
27188;DHT22;14708;50.872;5.306;2022-10-10T06:33:57;19.80;64.00
27188;DHT22;14708;50.872;5.306;2022-10-10T06:36:22;19.80;64.00
27188;DHT22;14708;50.872;5.306;2022-10-10T06:38:48;19.80;63.90
27188;DHT22;14708;50.872;5.306;2022-10-10T06:41:13;19.80;63.80
27188;DHT22;14708;50.872;5.306;2022-10-10T06:43:39;19.90;63.70
27188;DHT22;14708;50.872;5.306;2022-10-10T06:46:06;19.90;63.40
27188;DHT22;14708;50.872;5.306;2022-10-10T06:48:32;19.90;63.40
27188;DHT22;14708;50.872;5.306;2022-10-10T06:51:00;19.90;63.30
27188;DHT22;14708;50.872;5.306;2022-10-10T06:53:26;19.90;63.50
27188;DHT22;14708;50.872;5.306;2022-10-10T06:55:53;19.90;63.50
27188;DHT22;14708;50.872;5.306;2022-10-10T06:58:20;20.00;63.30
27188;DHT22;14708;50.872;5.306;2022-10-10T07:00:50;20.20;63.00
27188;DHT22;14708;50.872;5.306;2022-10-10T07:03:16;20.20;62.80
27188;DHT22;14708;50.872;5.306;2022-10-10T07:05:42;20.30;62.50
27188;DHT22;14708;50.872;5.306;2022-10-10T07:08:08;20.40;62.40
27188;DHT22;14708;50.872;5.306;2022-10-10T07:10:34;20.40;62.10
27188;DHT22;14708;50.872;5.306;2022-10-10T07:13:01;20.30;61.50
27188;DHT22;14708;50.872;5.306;2022-10-10T07:15:26;20.30;61.70
27188;DHT22;14708;50.872;5.306;2022-10-10T07:17:58;20.30;59.70
27188;DHT22;14708;50.872;5.306;2022-10-10T07:20:25;20.20;60.60
27188;DHT22;14708;50.872;5.306;2022-10-10T07:22:50;20.20;62.20
27188;DHT22;14708;50.872;5.306;2022-10-10T07:25:16;20.20;61.80
27188;DHT22;14708;50.872;5.306;2022-10-10T07:27:44;20.10;61.80
27188;DHT22;14708;50.872;5.306;2022-10-10T07:30:15;20.10;62.00
27188;DHT22;14708;50.872;5.306;2022-10-10T07:32:41;20.10;62.40
27188;DHT22;14708;50.872;5.306;2022-10-10T07:35:08;20.20;62.70
27188;DHT22;14708;50.872;5.306;2022-10-10T07:37:35;20.10;62.90
27188;DHT22;14708;50.872;5.306;2022-10-10T07:40:01;20.10;63.00
27188;DHT22;14708;50.872;5.306;2022-10-10T07:42:26;20.10;63.20
27188;DHT22;14708;50.872;5.306;2022-10-10T07:44:52;20.10;63.20
27188;DHT22;14708;50.872;5.306;2022-10-10T07:47:17;20.20;63.30
27188;DHT22;14708;50.872;5.306;2022-10-10T07:49:43;20.20;63.60
27188;DHT22;14708;50.872;5.306;2022-10-10T07:52:08;20.20;63.90
27188;DHT22;14708;50.872;5.306;2022-10-10T07:54:34;20.10;64.30
27188;DHT22;14708;50.872;5.306;2022-10-10T07:56:59;20.10;64.30
27188;DHT22;14708;50.872;5.306;2022-10-10T07:59:25;20.20;64.30
27188;DHT22;14708;50.872;5.306;2022-10-10T08:01:51;20.30;64.00
27188;DHT22;14708;50.872;5.306;2022-10-10T08:04:18;20.30;63.80
27188;DHT22;14708;50.872;5.306;2022-10-10T08:06:44;20.30;63.80
27188;DHT22;14708;50.872;5.306;2022-10-10T08:09:10;20.20;64.00
27188;DHT22;14708;50.872;5.306;2022-10-10T08:11:35;20.20;64.20
27188;DHT22;14708;50.872;5.306;2022-10-10T08:14:01;20.20;65.00
27188;DHT22;14708;50.872;5.306;2022-10-10T08:16:27;20.20;64.30
27188;DHT22;14708;50.872;5.306;2022-10-10T08:18:53;20.20;64.20
27188;DHT22;14708;50.872;5.306;2022-10-10T08:21:18;20.20;64.30
27188;DHT22;14708;50.872;5.306;2022-10-10T08:23:44;20.30;64.70
27188;DHT22;14708;50.872;5.306;2022-10-10T08:26:12;20.20;64.60
27188;DHT22;14708;50.872;5.306;2022-10-10T08:28:38;20.20;64.70
27188;DHT22;14708;50.872;5.306;2022-10-10T08:31:09;20.20;64.80
27188;DHT22;14708;50.872;5.306;2022-10-10T08:33:36;20.20;64.90
27188;DHT22;14708;50.872;5.306;2022-10-10T08:36:09;20.20;65.10
27188;DHT22;14708;50.872;5.306;2022-10-10T08:38:35;20.20;64.90
27188;DHT22;14708;50.872;5.306;2022-10-10T08:41:07;20.20;65.00
27188;DHT22;14708;50.872;5.306;2022-10-10T08:43:48;20.20;65.00
27188;DHT22;14708;50.872;5.306;2022-10-10T08:46:40;20.30;65.50
27188;DHT22;14708;50.872;5.306;2022-10-10T08:49:19;20.20;65.40
27188;DHT22;14708;50.872;5.306;2022-10-10T08:52:00;20.20;65.20
27188;DHT22;14708;50.872;5.306;2022-10-10T08:54:28;20.20;65.60
27188;DHT22;14708;50.872;5.306;2022-10-10T08:56:58;20.30;66.00
27188;DHT22;14708;50.872;5.306;2022-10-10T08:59:29;20.20;66.30
27188;DHT22;14708;50.872;5.306;2022-10-10T09:02:14;20.30;66.00
27188;DHT22;14708;50.872;5.306;2022-10-10T09:04:43;20.30;66.80
27188;DHT22;14708;50.872;5.306;2022-10-10T09:07:13;20.30;67.10
27188;DHT22;14708;50.872;5.306;2022-10-10T09:12:40;20.30;67.90
27188;DHT22;14708;50.872;5.306;2022-10-10T09:15:30;20.30;68.40
27188;DHT22;14708;50.872;5.306;2022-10-10T09:21:10;20.30;69.40
27188;DHT22;14708;50.872;5.306;2022-10-10T09:23:48;20.30;69.40
27188;DHT22;14708;50.872;5.306;2022-10-10T09:26:20;20.30;70.60
27188;DHT22;14708;50.872;5.306;2022-10-10T09:31:36;20.40;67.80
27188;DHT22;14708;50.872;5.306;2022-10-10T09:36:37;20.40;70.10
27188;DHT22;14708;50.872;5.306;2022-10-10T09:39:29;20.40;70.40
27188;DHT22;14708;50.872;5.306;2022-10-10T09:41:59;20.40;70.10
27188;DHT22;14708;50.872;5.306;2022-10-10T09:44:26;20.40;70.50
27188;DHT22;14708;50.872;5.306;2022-10-10T09:46:52;20.30;70.10
27188;DHT22;14708;50.872;5.306;2022-10-10T09:49:19;20.40;70.20
27188;DHT22;14708;50.872;5.306;2022-10-10T09:51:46;20.40;69.50
27188;DHT22;14708;50.872;5.306;2022-10-10T09:54:17;20.40;70.10
27188;DHT22;14708;50.872;5.306;2022-10-10T09:56:56;20.50;70.00
27188;DHT22;14708;50.872;5.306;2022-10-10T09:59:45;20.40;69.80
27188;DHT22;14708;50.872;5.306;2022-10-10T10:02:18;20.40;69.90
27188;DHT22;14708;50.872;5.306;2022-10-10T10:04:46;20.30;69.90
27188;DHT22;14708;50.872;5.306;2022-10-10T10:07:31;20.30;70.00
27188;DHT22;14708;50.872;5.306;2022-10-10T10:10:00;20.30;70.30
27188;DHT22;14708;50.872;5.306;2022-10-10T10:12:40;20.30;70.00
27188;DHT22;14708;50.872;5.306;2022-10-10T10:15:17;20.30;70.30
27188;DHT22;14708;50.872;5.306;2022-10-10T10:17:43;20.30;70.20
27188;DHT22;14708;50.872;5.306;2022-10-10T10:22:53;20.30;69.70
27188;DHT22;14708;50.872;5.306;2022-10-10T10:25:36;20.30;69.60
27188;DHT22;14708;50.872;5.306;2022-10-10T10:30:42;20.40;69.30
27188;DHT22;14708;50.872;5.306;2022-10-10T10:33:13;20.40;68.60
27188;DHT22;14708;50.872;5.306;2022-10-10T10:35:44;20.40;68.80
27188;DHT22;14708;50.872;5.306;2022-10-10T10:38:18;20.40;68.60
27188;DHT22;14708;50.872;5.306;2022-10-10T10:46:27;20.30;68.60
27188;DHT22;14708;50.872;5.306;2022-10-10T10:49:18;20.30;68.70
27188;DHT22;14708;50.872;5.306;2022-10-10T11:00:31;20.20;68.40
27188;DHT22;14708;50.872;5.306;2022-10-10T11:03:16;20.20;68.50
27188;DHT22;14708;50.872;5.306;2022-10-10T11:14:32;20.20;68.20
27188;DHT22;14708;50.872;5.306;2022-10-10T11:22:54;20.20;68.30
27188;DHT22;14708;50.872;5.306;2022-10-10T11:25:31;20.20;68.20
27188;DHT22;14708;50.872;5.306;2022-10-10T11:27:58;20.20;68.20
27188;DHT22;14708;50.872;5.306;2022-10-10T11:30:32;20.20;68.20
27188;DHT22;14708;50.872;5.306;2022-10-10T11:33:15;20.20;68.00
27188;DHT22;14708;50.872;5.306;2022-10-10T11:35:45;20.20;67.80
27188;DHT22;14708;50.872;5.306;2022-10-10T11:43:20;20.20;67.80
27188;DHT22;14708;50.872;5.306;2022-10-10T11:45:53;20.30;67.90
27188;DHT22;14708;50.872;5.306;2022-10-10T11:51:09;20.30;67.90
27188;DHT22;14708;50.872;5.306;2022-10-10T11:53:41;20.30;67.70
27188;DHT22;14708;50.872;5.306;2022-10-10T11:58:41;20.30;67.70
27188;DHT22;14708;50.872;5.306;2022-10-10T12:01:19;20.30;67.60
27188;DHT22;14708;50.872;5.306;2022-10-10T12:03:49;20.30;67.60
27188;DHT22;14708;50.872;5.306;2022-10-10T12:06:33;20.30;67.50
27188;DHT22;14708;50.872;5.306;2022-10-10T12:09:13;20.30;67.60
27188;DHT22;14708;50.872;5.306;2022-10-10T12:11:59;20.20;67.40
27188;DHT22;14708;50.872;5.306;2022-10-10T12:14:29;20.30;67.20
27188;DHT22;14708;50.872;5.306;2022-10-10T12:16:56;20.40;67.20
27188;DHT22;14708;50.872;5.306;2022-10-10T12:19:24;20.30;67.10
27188;DHT22;14708;50.872;5.306;2022-10-10T12:21:54;20.30;67.20
27188;DHT22;14708;50.872;5.306;2022-10-10T12:24:21;20.40;66.90
27188;DHT22;14708;50.872;5.306;2022-10-10T12:29:46;20.40;66.50
27188;DHT22;14708;50.872;5.306;2022-10-10T12:37:25;20.30;67.00
27188;DHT22;14708;50.872;5.306;2022-10-10T12:40:19;20.30;67.00
27188;DHT22;14708;50.872;5.306;2022-10-10T12:48:11;20.30;66.70
27188;DHT22;14708;50.872;5.306;2022-10-10T12:50:54;20.30;66.90
27188;DHT22;14708;50.872;5.306;2022-10-10T12:53:23;20.30;66.80
27188;DHT22;14708;50.872;5.306;2022-10-10T12:55:52;20.20;67.00
27188;DHT22;14708;50.872;5.306;2022-10-10T12:58:37;20.20;66.80
27188;DHT22;14708;50.872;5.306;2022-10-10T13:01:07;20.30;66.40
27188;DHT22;14708;50.872;5.306;2022-10-10T13:03:41;20.50;65.90
27188;DHT22;14708;50.872;5.306;2022-10-10T13:06:32;20.50;62.70
27188;DHT22;14708;50.872;5.306;2022-10-10T13:08:59;20.60;62.90
27188;DHT22;14708;50.872;5.306;2022-10-10T13:11:26;20.60;63.90
27188;DHT22;14708;50.872;5.306;2022-10-10T13:13:53;20.60;64.20
27188;DHT22;14708;50.872;5.306;2022-10-10T13:16:25;20.60;63.90
27188;DHT22;14708;50.872;5.306;2022-10-10T13:18:56;20.60;64.00
27188;DHT22;14708;50.872;5.306;2022-10-10T13:21:32;20.60;64.00
27188;DHT22;14708;50.872;5.306;2022-10-10T13:24:00;20.60;64.20
27188;DHT22;14708;50.872;5.306;2022-10-10T13:26:29;20.60;64.20
27188;DHT22;14708;50.872;5.306;2022-10-10T13:28:57;20.70;65.10
27188;DHT22;14708;50.872;5.306;2022-10-10T13:31:28;20.70;65.60
27188;DHT22;14708;50.872;5.306;2022-10-10T13:34:03;20.70;65.70
27188;DHT22;14708;50.872;5.306;2022-10-10T13:36:31;20.60;65.70
27188;DHT22;14708;50.872;5.306;2022-10-10T13:38:57;20.70;65.80
27188;DHT22;14708;50.872;5.306;2022-10-10T13:41:25;20.70;63.00
27188;DHT22;14708;50.872;5.306;2022-10-10T13:43:51;20.70;63.70
27188;DHT22;14708;50.872;5.306;2022-10-10T13:46:29;20.70;65.30
27188;DHT22;14708;50.872;5.306;2022-10-10T13:48:55;20.70;65.10
27188;DHT22;14708;50.872;5.306;2022-10-10T13:51:40;20.70;65.10
27188;DHT22;14708;50.872;5.306;2022-10-10T13:54:35;20.80;65.10
27188;DHT22;14708;50.872;5.306;2022-10-10T13:57:03;20.70;64.70
27188;DHT22;14708;50.872;5.306;2022-10-10T13:59:29;20.70;65.20
27188;DHT22;14708;50.872;5.306;2022-10-10T14:02:02;20.70;65.50
27188;DHT22;14708;50.872;5.306;2022-10-10T14:04:43;20.70;65.70
27188;DHT22;14708;50.872;5.306;2022-10-10T14:07:23;20.70;66.20
27188;DHT22;14708;50.872;5.306;2022-10-10T14:09:55;20.70;66.70
27188;DHT22;14708;50.872;5.306;2022-10-10T14:12:33;20.90;67.50
27188;DHT22;14708;50.872;5.306;2022-10-10T14:15:00;20.90;68.30
27188;DHT22;14708;50.872;5.306;2022-10-10T14:17:27;20.90;68.70
27188;DHT22;14708;50.872;5.306;2022-10-10T14:19:54;21.00;69.00
27188;DHT22;14708;50.872;5.306;2022-10-10T14:22:20;21.00;69.10
27188;DHT22;14708;50.872;5.306;2022-10-10T14:24:46;21.00;69.80
27188;DHT22;14708;50.872;5.306;2022-10-10T14:29:37;21.00;70.70
27188;DHT22;14708;50.872;5.306;2022-10-10T14:32:03;21.00;70.90
27188;DHT22;14708;50.872;5.306;2022-10-10T14:34:29;21.00;71.20
27188;DHT22;14708;50.872;5.306;2022-10-10T14:36:54;21.10;71.50
27188;DHT22;14708;50.872;5.306;2022-10-10T14:39:20;21.10;71.30
27188;DHT22;14708;50.872;5.306;2022-10-10T14:41:46;21.10;71.90
27188;DHT22;14708;50.872;5.306;2022-10-10T14:44:11;21.10;71.30
27188;DHT22;14708;50.872;5.306;2022-10-10T14:46:38;21.10;71.10
27188;DHT22;14708;50.872;5.306;2022-10-10T14:49:04;21.10;70.80
27188;DHT22;14708;50.872;5.306;2022-10-10T14:51:31;21.10;71.10
27188;DHT22;14708;50.872;5.306;2022-10-10T14:54:03;21.20;71.00
27188;DHT22;14708;50.872;5.306;2022-10-10T14:56:29;21.30;70.20
27188;DHT22;14708;50.872;5.306;2022-10-10T14:58:55;21.30;70.20
27188;DHT22;14708;50.872;5.306;2022-10-10T15:01:20;21.40;70.20
27188;DHT22;14708;50.872;5.306;2022-10-10T15:03:47;21.50;70.30
27188;DHT22;14708;50.872;5.306;2022-10-10T15:06:12;21.60;69.70
27188;DHT22;14708;50.872;5.306;2022-10-10T15:08:38;21.60;67.80
27188;DHT22;14708;50.872;5.306;2022-10-10T15:11:03;21.60;66.70
27188;DHT22;14708;50.872;5.306;2022-10-10T15:13:29;21.60;67.00
27188;DHT22;14708;50.872;5.306;2022-10-10T15:15:55;21.50;67.00
27188;DHT22;14708;50.872;5.306;2022-10-10T15:18:20;21.50;67.40
27188;DHT22;14708;50.872;5.306;2022-10-10T15:20:46;21.50;67.70
27188;DHT22;14708;50.872;5.306;2022-10-10T15:23:11;21.50;68.10
27188;DHT22;14708;50.872;5.306;2022-10-10T15:25:41;21.50;68.40
27188;DHT22;14708;50.872;5.306;2022-10-10T15:28:07;21.50;68.20
27188;DHT22;14708;50.872;5.306;2022-10-10T15:30:33;21.60;68.20
27188;DHT22;14708;50.872;5.306;2022-10-10T15:32:59;21.60;68.10
27188;DHT22;14708;50.872;5.306;2022-10-10T15:35:25;21.60;68.10
27188;DHT22;14708;50.872;5.306;2022-10-10T15:37:51;21.70;67.70
27188;DHT22;14708;50.872;5.306;2022-10-10T15:40:20;21.70;68.10
27188;DHT22;14708;50.872;5.306;2022-10-10T15:42:47;21.70;67.70
27188;DHT22;14708;50.872;5.306;2022-10-10T15:45:15;21.80;67.50
27188;DHT22;14708;50.872;5.306;2022-10-10T15:47:41;21.80;67.60
27188;DHT22;14708;50.872;5.306;2022-10-10T15:50:08;21.80;67.50
27188;DHT22;14708;50.872;5.306;2022-10-10T15:52:35;21.80;67.40
27188;DHT22;14708;50.872;5.306;2022-10-10T15:55:00;21.80;67.30
27188;DHT22;14708;50.872;5.306;2022-10-10T15:57:26;21.90;66.90
27188;DHT22;14708;50.872;5.306;2022-10-10T15:59:51;22.00;66.50
27188;DHT22;14708;50.872;5.306;2022-10-10T16:02:17;21.90;66.70
27188;DHT22;14708;50.872;5.306;2022-10-10T16:04:44;21.90;66.70
27188;DHT22;14708;50.872;5.306;2022-10-10T16:07:10;21.90;66.70
27188;DHT22;14708;50.872;5.306;2022-10-10T16:09:36;21.90;66.80
27188;DHT22;14708;50.872;5.306;2022-10-10T16:12:01;21.90;66.80
27188;DHT22;14708;50.872;5.306;2022-10-10T16:14:27;21.90;66.80
27188;DHT22;14708;50.872;5.306;2022-10-10T16:16:53;22.00;66.70
27188;DHT22;14708;50.872;5.306;2022-10-10T16:19:18;22.00;66.70
27188;DHT22;14708;50.872;5.306;2022-10-10T16:21:44;22.00;66.60
27188;DHT22;14708;50.872;5.306;2022-10-10T16:24:10;22.00;66.70
27188;DHT22;14708;50.872;5.306;2022-10-10T16:26:36;22.00;66.40
27188;DHT22;14708;50.872;5.306;2022-10-10T16:29:04;22.00;66.40
27188;DHT22;14708;50.872;5.306;2022-10-10T16:31:30;22.00;66.30
27188;DHT22;14708;50.872;5.306;2022-10-10T16:33:58;22.00;66.30
27188;DHT22;14708;50.872;5.306;2022-10-10T16:36:29;22.00;66.50
27188;DHT22;14708;50.872;5.306;2022-10-10T16:38:56;22.00;66.40
27188;DHT22;14708;50.872;5.306;2022-10-10T16:41:27;22.00;66.40
27188;DHT22;14708;50.872;5.306;2022-10-10T16:43:53;22.00;66.40
27188;DHT22;14708;50.872;5.306;2022-10-10T16:46:21;22.00;66.30
27188;DHT22;14708;50.872;5.306;2022-10-10T16:48:47;22.00;66.40
27188;DHT22;14708;50.872;5.306;2022-10-10T16:51:20;22.10;66.30
27188;DHT22;14708;50.872;5.306;2022-10-10T16:53:48;22.10;66.20
27188;DHT22;14708;50.872;5.306;2022-10-10T16:56:16;22.00;66.00
27188;DHT22;14708;50.872;5.306;2022-10-10T16:58:42;22.10;65.70
27188;DHT22;14708;50.872;5.306;2022-10-10T17:01:09;22.10;65.70
27188;DHT22;14708;50.872;5.306;2022-10-10T17:03:35;22.10;65.80
27188;DHT22;14708;50.872;5.306;2022-10-10T17:06:03;22.20;65.70
27188;DHT22;14708;50.872;5.306;2022-10-10T17:08:31;22.20;65.90
27188;DHT22;14708;50.872;5.306;2022-10-10T17:10:58;22.20;65.50
27188;DHT22;14708;50.872;5.306;2022-10-10T17:13:24;22.30;65.60
27188;DHT22;14708;50.872;5.306;2022-10-10T17:15:50;22.40;65.60
27188;DHT22;14708;50.872;5.306;2022-10-10T17:18:16;22.40;65.40